Time;durP1;ratioP1;P1;durP2;ratioP2;P2;SDS_P1;SDS_P2;PMS_P1;PMS_P2;Temp;Humidity;BMP_temperature;BMP_pressure;BME280_temperature;BME280_humidity;BME280_pressure;Samples;Min_cycle;Max_cycle;Signal;HPM_P1;HPM_P2
2021/07/24 00:00:48;;;;;;;14.93;12.68;;;17.70;99.90;;;;;;5045917;28;20033;-74
2021/07/24 00:03:14;;;;;;;14.93;12.23;;;17.70;99.90;;;;;;5045226;28;20051;-74
2021/07/24 00:05:39;;;;;;;15.00;11.48;;;17.70;99.90;;;;;;5045090;28;20044;-73
2021/07/24 00:08:07;;;;;;;15.65;12.50;;;17.70;99.90;;;;;;5045492;28;20028;-74
2021/07/24 00:10:35;;;;;;;15.10;12.40;;;17.70;99.90;;;;;;5044225;28;20187;-74
2021/07/24 00:13:01;;;;;;;14.38;11.73;;;17.60;99.90;;;;;;5045630;28;20043;-74
2021/07/24 00:15:28;;;;;;;17.58;12.80;;;17.70;99.90;;;;;;5046312;28;20394;-73
2021/07/24 00:17:54;;;;;;;14.50;12.02;;;17.60;99.90;;;;;;5027535;28;20037;-74
2021/07/24 00:20:22;;;;;;;14.73;12.27;;;17.60;99.90;;;;;;5045298;28;20173;-73
2021/07/24 00:22:48;;;;;;;13.52;11.85;;;17.60;99.90;;;;;;5046448;28;20044;-74
2021/07/24 00:25:16;;;;;;;14.70;12.52;;;17.60;99.90;;;;;;5028723;28;20044;-73
2021/07/24 00:27:41;;;;;;;14.85;11.80;;;17.60;99.90;;;;;;5045017;28;20091;-75
2021/07/24 00:30:12;;;;;;;15.70;12.80;;;17.60;99.90;;;;;;5045407;28;21866;-74
2021/07/24 00:32:38;;;;;;;17.57;12.90;;;17.60;99.90;;;;;;5046656;28;20029;-74
2021/07/24 00:35:04;;;;;;;14.13;12.35;;;17.50;99.90;;;;;;5046275;28;20032;-74
2021/07/24 00:37:30;;;;;;;14.85;12.88;;;17.50;99.90;;;;;;5045292;28;20478;-73
2021/07/24 00:39:56;;;;;;;15.15;12.35;;;17.50;99.90;;;;;;5045844;28;20068;-73
2021/07/24 00:42:23;;;;;;;15.35;12.60;;;17.50;99.90;;;;;;5028175;28;20021;-73
2021/07/24 00:44:52;;;;;;;14.98;12.40;;;17.50;99.90;;;;;;5012368;28;20055;-73
2021/07/24 00:47:22;;;;;;;14.75;12.23;;;17.50;99.90;;;;;;5046048;28;21047;-74
2021/07/24 00:49:48;;;;;;;14.80;12.80;;;17.50;99.90;;;;;;5027941;28;20037;-74
2021/07/24 00:52:14;;;;;;;15.80;12.90;;;17.40;99.90;;;;;;5045547;28;20042;-74
2021/07/24 00:54:40;;;;;;;15.15;13.18;;;17.40;99.90;;;;;;5060776;28;20110;-73
2021/07/24 00:57:08;;;;;;;15.35;13.15;;;17.40;99.90;;;;;;5027785;28;20035;-73
2021/07/24 00:59:34;;;;;;;16.25;13.23;;;17.30;99.90;;;;;;5028793;28;20364;-74
2021/07/24 01:02:00;;;;;;;15.20;12.30;;;17.30;99.90;;;;;;5045919;28;20036;-73
2021/07/24 01:04:28;;;;;;;16.35;13.48;;;17.30;99.90;;;;;;5044867;28;20163;-73
2021/07/24 01:06:54;;;;;;;15.70;12.60;;;17.30;99.90;;;;;;5044403;28;20033;-73
2021/07/24 01:09:20;;;;;;;15.55;13.20;;;17.30;99.90;;;;;;5045024;28;20536;-73
2021/07/24 01:11:46;;;;;;;14.52;12.48;;;17.30;99.90;;;;;;5045038;28;20082;-68
2021/07/24 01:14:14;;;;;;;17.27;14.18;;;17.30;99.90;;;;;;5027922;28;20028;-69
2021/07/24 01:16:39;;;;;;;19.80;16.42;;;17.30;99.90;;;;;;5045829;28;20036;-69
2021/07/24 01:19:07;;;;;;;16.85;14.77;;;17.30;99.90;;;;;;5045859;28;20040;-73
2021/07/24 01:21:33;;;;;;;15.48;12.70;;;17.20;99.90;;;;;;5045156;28;20039;-73
2021/07/24 01:23:58;;;;;;;15.30;12.98;;;17.30;99.90;;;;;;5028859;28;20369;-73
2021/07/24 01:26:25;;;;;;;15.00;12.45;;;17.20;99.90;;;;;;5027471;28;20090;-73
2021/07/24 01:28:57;;;;;;;14.85;12.52;;;17.20;99.90;;;;;;5028795;28;20094;-75
2021/07/24 01:31:23;;;;;;;17.17;13.02;;;17.20;99.90;;;;;;5029076;28;20132;-74
2021/07/24 01:33:49;;;;;;;15.57;12.60;;;17.20;99.90;;;;;;5028280;28;20025;-74
2021/07/24 01:36:15;;;;;;;16.77;12.38;;;17.20;99.90;;;;;;5011202;28;20585;-74
2021/07/24 01:38:41;;;;;;;15.35;12.45;;;17.20;99.90;;;;;;5028888;28;20043;-74
2021/07/24 01:41:07;;;;;;;17.02;12.85;;;17.20;99.90;;;;;;5046976;28;20024;-74
2021/07/24 01:43:35;;;;;;;15.50;12.85;;;17.20;99.90;;;;;;5043744;28;20029;-74
2021/07/24 01:46:01;;;;;;;14.88;12.18;;;17.20;99.90;;;;;;5031505;28;20064;-74
2021/07/24 01:53:47;;;;;;;15.50;12.50;;;17.20;99.90;;;;;;5034205;28;20068;-74
2021/07/24 01:56:16;;;;;;;14.80;12.65;;;17.20;99.90;;;;;;5050448;28;20021;-75
2021/07/24 01:58:42;;;;;;;15.70;13.18;;;17.20;99.90;;;;;;5051038;28;20045;-75
2021/07/24 02:01:07;;;;;;;14.25;12.48;;;17.20;99.90;;;;;;5049864;28;20028;-74
2021/07/24 02:03:41;;;;;;;16.30;12.80;;;17.20;99.90;;;;;;5049587;28;20844;-74
2021/07/24 02:06:13;;;;;;;15.80;12.43;;;17.20;99.90;;;;;;5049498;28;20055;-74
2021/07/24 02:08:45;;;;;;;16.23;12.60;;;17.20;99.90;;;;;;5047517;28;20037;-74
2021/07/24 02:11:13;;;;;;;14.63;11.88;;;17.10;99.90;;;;;;5049127;28;20036;-74
2021/07/24 02:13:39;;;;;;;14.63;12.35;;;17.10;99.90;;;;;;5048879;28;21970;-75
2021/07/24 02:16:06;;;;;;;13.73;12.23;;;17.10;99.90;;;;;;5031792;28;20028;-74
2021/07/24 02:18:32;;;;;;;17.10;12.70;;;17.10;99.90;;;;;;5049533;28;20427;-75
2021/07/24 02:21:00;;;;;;;17.05;12.95;;;17.10;99.90;;;;;;5014850;28;20021;-75
2021/07/24 02:23:25;;;;;;;15.32;12.38;;;17.10;99.90;;;;;;5048729;28;20071;-74
2021/07/24 02:25:53;;;;;;;15.13;12.32;;;17.10;99.90;;;;;;5031243;28;20108;-74
2021/07/24 02:28:19;;;;;;;14.85;12.35;;;17.00;99.90;;;;;;5032069;28;20079;-74
2021/07/24 02:30:45;;;;;;;15.00;11.85;;;17.00;99.90;;;;;;5048224;28;20041;-75
2021/07/24 02:33:13;;;;;;;16.60;12.20;;;17.00;99.90;;;;;;5047981;28;20151;-74
2021/07/24 02:35:38;;;;;;;16.05;11.73;;;17.00;99.90;;;;;;5065476;28;20029;-74
2021/07/24 02:38:09;;;;;;;15.73;12.88;;;17.00;99.90;;;;;;5031161;28;20068;-74
2021/07/24 02:40:36;;;;;;;16.40;12.32;;;17.00;99.90;;;;;;5031741;28;20028;-74
2021/07/24 02:43:04;;;;;;;14.85;12.15;;;16.90;99.90;;;;;;5048634;28;20040;-74
2021/07/24 02:45:32;;;;;;;15.35;12.40;;;16.90;99.90;;;;;;5049206;28;20098;-74
2021/07/24 02:48:00;;;;;;;14.13;12.13;;;16.90;99.90;;;;;;5031628;28;20074;-74
2021/07/24 02:50:25;;;;;;;15.38;12.20;;;16.90;99.90;;;;;;5048872;28;20025;-74
2021/07/24 02:52:51;;;;;;;15.77;12.32;;;16.90;99.90;;;;;;5048360;28;20094;-74
2021/07/24 02:55:19;;;;;;;17.02;12.52;;;16.80;99.90;;;;;;5029771;28;20032;-74
2021/07/24 02:57:45;;;;;;;16.88;12.57;;;16.80;99.90;;;;;;5029430;28;20080;-74
2021/07/24 03:00:11;;;;;;;15.93;12.35;;;16.80;99.90;;;;;;5048744;28;20160;-74
2021/07/24 03:02:37;;;;;;;14.65;12.57;;;16.80;99.90;;;;;;5016015;28;20055;-74
2021/07/24 03:05:02;;;;;;;14.93;12.45;;;16.80;99.90;;;;;;5047683;28;20127;-74
2021/07/24 03:07:28;;;;;;;15.85;11.98;;;16.80;99.90;;;;;;5031528;28;20039;-74
2021/07/24 03:09:54;;;;;;;15.65;12.40;;;16.80;99.90;;;;;;5047622;28;20108;-74
2021/07/24 03:12:19;;;;;;;14.93;12.35;;;16.80;99.90;;;;;;5030128;28;20037;-74
2021/07/24 03:14:48;;;;;;;16.25;12.27;;;16.80;99.90;;;;;;5031301;28;20063;-74
2021/07/24 03:17:13;;;;;;;16.08;12.40;;;16.80;99.90;;;;;;5013310;28;20025;-74
2021/07/24 03:19:41;;;;;;;15.30;11.88;;;16.80;99.90;;;;;;5030198;28;20031;-74
2021/07/24 03:22:07;;;;;;;14.63;11.82;;;16.80;99.90;;;;;;5030710;28;20029;-74
2021/07/24 03:24:35;;;;;;;14.35;11.95;;;16.80;99.90;;;;;;5048912;28;20029;-74
2021/07/24 03:27:00;;;;;;;15.63;12.77;;;16.80;99.90;;;;;;5029256;28;20028;-74
2021/07/24 03:29:26;;;;;;;15.73;12.18;;;16.70;99.90;;;;;;5026908;28;20035;-74
2021/07/24 03:31:52;;;;;;;14.73;11.77;;;16.70;99.90;;;;;;5030891;28;20029;-74
2021/07/24 03:34:20;;;;;;;14.85;12.10;;;16.80;99.90;;;;;;5048119;28;20033;-74
2021/07/24 03:36:45;;;;;;;15.00;12.10;;;16.70;99.90;;;;;;5048892;28;20025;-74
2021/07/24 03:39:13;;;;;;;17.27;12.68;;;16.70;99.90;;;;;;5048346;28;20896;-74
2021/07/24 03:41:41;;;;;;;15.93;12.15;;;16.70;99.90;;;;;;5015009;28;20450;-74
2021/07/24 03:44:09;;;;;;;15.35;12.13;;;16.70;99.90;;;;;;5047339;28;20043;-74
2021/07/24 03:46:37;;;;;;;16.35;12.40;;;16.70;99.90;;;;;;5031170;28;20033;-74
2021/07/24 03:49:04;;;;;;;15.18;12.18;;;16.70;99.90;;;;;;5048143;28;20033;-74
2021/07/24 03:51:30;;;;;;;14.88;12.13;;;16.70;99.90;;;;;;5047043;28;20051;-74
2021/07/24 03:53:58;;;;;;;15.13;11.52;;;16.70;99.90;;;;;;5046782;28;20064;-74
2021/07/24 03:56:24;;;;;;;16.05;12.15;;;16.70;99.90;;;;;;5047186;28;20500;-74
2021/07/24 03:58:51;;;;;;;14.32;11.90;;;16.70;99.90;;;;;;5029554;28;20143;-75
2021/07/24 04:01:17;;;;;;;14.18;12.13;;;16.70;99.90;;;;;;5030220;28;20032;-73
2021/07/24 04:03:43;;;;;;;15.15;11.68;;;16.70;99.90;;;;;;5047947;28;20040;-74
2021/07/24 04:06:11;;;;;;;15.00;12.68;;;16.80;99.90;;;;;;5046451;28;20040;-74
2021/07/24 04:08:37;;;;;;;14.90;12.80;;;16.80;99.90;;;;;;5029735;28;20057;-75
2021/07/24 04:11:06;;;;;;;15.20;12.57;;;16.80;99.90;;;;;;5046012;28;20132;-75
2021/07/24 04:13:36;;;;;;;14.93;12.18;;;16.80;99.90;;;;;;5029382;28;20039;-74
2021/07/24 04:16:04;;;;;;;14.60;11.70;;;16.80;99.90;;;;;;5046647;28;20032;-74
2021/07/24 04:18:33;;;;;;;13.90;11.90;;;16.90;99.90;;;;;;5046424;28;20033;-74
2021/07/24 04:21:01;;;;;;;15.07;12.43;;;16.90;99.90;;;;;;5029392;28;20479;-74
2021/07/24 04:23:26;;;;;;;14.68;11.90;;;16.90;99.90;;;;;;5046184;28;20032;-74
2021/07/24 04:25:57;;;;;;;14.38;11.63;;;16.90;99.90;;;;;;5046760;28;20035;-74
2021/07/24 04:28:27;;;;;;;13.90;11.68;;;17.00;99.90;;;;;;5046396;28;20090;-74
2021/07/24 04:30:53;;;;;;;14.68;11.98;;;17.00;99.90;;;;;;5046726;28;20096;-74
2021/07/24 04:33:18;;;;;;;16.80;12.88;;;17.00;99.90;;;;;;5047736;28;20032;-74
2021/07/24 04:35:47;;;;;;;16.83;12.27;;;17.10;99.90;;;;;;5046888;28;20029;-74
2021/07/24 04:38:14;;;;;;;14.90;11.70;;;17.10;99.90;;;;;;5046278;28;20075;-74
2021/07/24 04:40:40;;;;;;;14.48;11.73;;;17.10;99.90;;;;;;4998485;28;20033;-74
2021/07/24 04:43:10;;;;;;;17.92;12.73;;;17.20;99.90;;;;;;5029387;28;20029;-74
2021/07/24 04:45:40;;;;;;;14.82;12.70;;;17.30;99.90;;;;;;5047686;28;20127;-74
2021/07/24 04:48:06;;;;;;;14.50;12.35;;;17.30;99.90;;;;;;5047509;28;20433;-74
2021/07/24 04:50:32;;;;;;;14.23;11.63;;;17.40;99.90;;;;;;5046333;28;20453;-74
2021/07/24 04:52:57;;;;;;;15.43;12.52;;;17.50;99.90;;;;;;5029110;28;20035;-74
2021/07/24 04:55:24;;;;;;;13.57;11.68;;;17.50;99.90;;;;;;5029212;28;20032;-74
2021/07/24 04:57:52;;;;;;;14.85;12.05;;;17.60;99.90;;;;;;5028260;28;20055;-74
2021/07/24 05:00:18;;;;;;;14.40;11.95;;;17.60;99.90;;;;;;5047139;28;20029;-74
2021/07/24 05:02:46;;;;;;;15.40;12.93;;;17.70;99.90;;;;;;5029119;28;20040;-74
2021/07/24 05:05:14;;;;;;;15.93;12.55;;;17.70;99.90;;;;;;5029929;28;20522;-74
2021/07/24 05:07:41;;;;;;;16.10;12.50;;;17.80;99.90;;;;;;5029955;28;20659;-74
2021/07/24 05:10:12;;;;;;;14.60;12.63;;;17.80;99.90;;;;;;5029404;28;20155;-74
2021/07/24 05:12:39;;;;;;;14.77;12.02;;;17.90;99.90;;;;;;5047221;28;20037;-74
2021/07/24 05:15:05;;;;;;;15.68;12.50;;;17.90;99.90;;;;;;5045567;28;20028;-74
2021/07/24 05:17:31;;;;;;;16.00;12.52;;;18.00;99.90;;;;;;5045464;28;20492;-75
2021/07/24 05:19:59;;;;;;;15.80;12.63;;;18.00;99.90;;;;;;5047957;28;20036;-75
2021/07/24 05:22:24;;;;;;;17.08;12.57;;;18.00;99.90;;;;;;5050792;28;20397;-75
2021/07/24 05:24:53;;;;;;;15.85;12.95;;;18.00;99.90;;;;;;5049710;28;20040;-75
2021/07/24 05:27:18;;;;;;;14.75;12.00;;;18.10;99.90;;;;;;5049227;28;20120;-75
2021/07/24 05:29:44;;;;;;;15.88;12.73;;;18.20;99.90;;;;;;5050869;28;20039;-75
2021/07/24 05:32:10;;;;;;;15.32;13.00;;;18.20;99.90;;;;;;5049736;28;20064;-75
2021/07/24 05:34:35;;;;;;;15.80;12.65;;;18.20;99.90;;;;;;5051149;28;20021;-74
2021/07/24 05:37:01;;;;;;;15.35;12.77;;;18.20;99.90;;;;;;5049399;28;20024;-75
2021/07/24 05:39:29;;;;;;;15.52;13.30;;;18.20;99.90;;;;;;5050358;28;20044;-75
2021/07/24 05:41:55;;;;;;;15.73;12.40;;;18.30;99.90;;;;;;5050720;28;20059;-75
2021/07/24 05:44:21;;;;;;;16.50;12.98;;;18.30;99.90;;;;;;5031229;28;20052;-75
2021/07/24 05:46:49;;;;;;;16.08;13.60;;;18.30;99.90;;;;;;5031109;28;20029;-75
2021/07/24 05:49:17;;;;;;;17.67;13.65;;;18.30;99.90;;;;;;5031939;28;20060;-74
2021/07/24 05:51:45;;;;;;;16.85;13.85;;;18.40;99.90;;;;;;5050411;28;20116;-74
2021/07/24 05:54:11;;;;;;;16.92;14.13;;;18.40;99.90;;;;;;5031310;28;20033;-74
2021/07/24 05:56:39;;;;;;;15.68;13.18;;;18.50;99.90;;;;;;5048585;28;20025;-74
2021/07/24 05:59:05;;;;;;;15.60;13.60;;;18.50;99.90;;;;;;5048318;28;20057;-74
2021/07/24 06:01:30;;;;;;;15.23;12.60;;;18.50;99.90;;;;;;5049207;28;20500;-73
2021/07/24 06:03:56;;;;;;;15.98;13.63;;;18.60;99.90;;;;;;5033309;28;20036;-74
2021/07/24 06:06:24;;;;;;;16.50;13.13;;;18.60;99.90;;;;;;5048372;28;20021;-74
2021/07/24 06:08:52;;;;;;;16.58;13.23;;;18.70;99.90;;;;;;5049849;28;20033;-74
2021/07/24 06:11:20;;;;;;;16.08;13.45;;;18.80;99.90;;;;;;5049446;28;20025;-74
2021/07/24 06:13:45;;;;;;;15.23;13.63;;;18.90;99.90;;;;;;5049520;28;20082;-75
2021/07/24 06:16:11;;;;;;;14.90;13.25;;;18.90;99.90;;;;;;5031291;28;20115;-74
2021/07/24 06:18:39;;;;;;;15.63;13.52;;;19.00;99.90;;;;;;5047473;28;20035;-74
2021/07/24 06:21:05;;;;;;;17.33;13.80;;;19.00;99.90;;;;;;5049118;28;20033;-74
2021/07/24 06:23:31;;;;;;;16.85;14.77;;;19.20;99.90;;;;;;5065382;28;20051;-74
2021/07/24 06:26:01;;;;;;;16.42;13.90;;;19.30;99.90;;;;;;5032031;28;20037;-74
2021/07/24 06:28:29;;;;;;;15.70;13.70;;;19.40;99.90;;;;;;5030990;28;20047;-74
2021/07/24 06:31:04;;;;;;;15.45;13.57;;;19.40;99.90;;;;;;5049065;28;20032;-74
2021/07/24 06:33:33;;;;;;;16.67;14.05;;;19.50;99.90;;;;;;5032000;28;20041;-74
2021/07/24 06:35:59;;;;;;;16.25;13.25;;;19.60;99.90;;;;;;5048340;28;20024;-74
2021/07/24 06:38:27;;;;;;;16.40;12.80;;;19.60;99.90;;;;;;5047612;28;20087;-74
2021/07/24 06:40:55;;;;;;;17.42;14.35;;;19.70;99.90;;;;;;5050331;28;20123;-74
2021/07/24 06:43:23;;;;;;;16.17;13.68;;;19.80;99.90;;;;;;5031552;28;20162;-75
2021/07/24 06:45:52;;;;;;;15.82;13.80;;;19.80;99.90;;;;;;5049381;28;20048;-74
2021/07/24 06:48:22;;;;;;;18.88;13.48;;;19.90;99.90;;;;;;5047067;28;20842;-74
2021/07/24 06:50:47;;;;;;;16.38;12.45;;;19.90;99.90;;;;;;5064385;28;20049;-74
2021/07/24 06:53:15;;;;;;;15.50;13.15;;;20.10;99.90;;;;;;5029913;28;20537;-74
2021/07/24 06:55:46;;;;;;;17.70;13.52;;;20.00;99.90;;;;;;5047500;28;20075;-74
2021/07/24 06:58:14;;;;;;;15.80;13.82;;;20.10;99.90;;;;;;5048215;28;20505;-74
2021/07/24 07:00:42;;;;;;;16.33;13.70;;;20.20;99.90;;;;;;5049454;28;20025;-74
2021/07/24 07:03:07;;;;;;;16.33;14.20;;;20.30;99.90;;;;;;5049555;28;20040;-74
2021/07/24 07:05:33;;;;;;;15.43;13.63;;;20.30;99.90;;;;;;5047626;28;20039;-74
2021/07/24 07:08:04;;;;;;;15.30;13.70;;;20.40;99.90;;;;;;5029049;28;20029;-74
2021/07/24 07:10:32;;;;;;;;;;;20.40;99.90;;;;;;5015171;28;20041;-72
2021/07/24 07:12:58;;;;;;;16.65;13.00;;;20.40;99.90;;;;;;5048418;28;19920;-72
2021/07/24 07:15:25;;;;;;;15.23;13.00;;;20.50;99.90;;;;;;5048189;28;20144;-71
2021/07/24 07:17:52;;;;;;;15.85;13.70;;;20.60;99.90;;;;;;5031217;28;20086;-72
2021/07/24 07:20:22;;;;;;;15.20;12.65;;;20.60;99.90;;;;;;5030913;28;20043;-72
2021/07/24 07:22:48;;;;;;;16.30;13.95;;;20.60;99.90;;;;;;5047858;28;20047;-72
2021/07/24 07:25:16;;;;;;;15.40;13.52;;;20.70;99.90;;;;;;5013294;28;21884;-72
2021/07/24 07:27:44;;;;;;;16.35;13.93;;;20.70;99.90;;;;;;5029793;28;20040;-72
2021/07/24 07:30:11;;;;;;;15.63;13.43;;;20.70;99.90;;;;;;5048173;28;20053;-72
2021/07/24 07:32:39;;;;;;;15.18;13.48;;;20.70;99.90;;;;;;5062467;28;20091;-72
2021/07/24 07:35:06;;;;;;;15.55;13.27;;;20.70;99.90;;;;;;5030370;28;20167;-71
2021/07/24 07:37:31;;;;;;;16.95;13.52;;;20.70;99.90;;;;;;5048014;28;20021;-72
2021/07/24 07:39:59;;;;;;;16.48;14.27;;;20.70;99.90;;;;;;5012429;28;20102;-72
2021/07/24 07:42:27;;;;;;;18.58;13.57;;;20.80;99.90;;;;;;5047270;28;20020;-72
2021/07/24 07:44:53;;;;;;;17.00;13.95;;;20.90;99.90;;;;;;5029486;28;20507;-72
2021/07/24 07:47:18;;;;;;;15.90;14.18;;;20.70;99.90;;;;;;5047753;28;20036;-72
2021/07/24 07:49:46;;;;;;;17.25;13.80;;;20.70;99.90;;;;;;5046728;28;20111;-72
2021/07/24 07:52:16;;;;;;;16.27;13.20;;;20.80;99.90;;;;;;5047181;28;21993;-72
2021/07/24 07:54:42;;;;;;;16.73;13.82;;;20.80;99.90;;;;;;5046571;28;20032;-72
2021/07/24 07:57:13;;;;;;;16.67;14.07;;;20.90;99.90;;;;;;5029233;28;20094;-74
2021/07/24 07:59:39;;;;;;;16.05;14.05;;;20.90;99.90;;;;;;5018240;28;20032;-72
2021/07/24 08:02:04;;;;;;;18.92;13.98;;;20.90;99.90;;;;;;5046635;28;20024;-72
2021/07/24 08:04:30;;;;;;;16.30;13.27;;;20.80;99.90;;;;;;5047171;28;20047;-72
2021/07/24 08:06:56;;;;;;;15.07;13.43;;;20.90;99.90;;;;;;5047205;28;20040;-72
2021/07/24 08:09:21;;;;;;;19.52;13.93;;;21.10;99.90;;;;;;5047523;28;20037;-75
2021/07/24 08:11:50;;;;;;;16.45;13.60;;;21.00;99.90;;;;;;5046723;28;20064;-74
2021/07/24 08:14:15;;;;;;;16.05;13.55;;;21.10;99.90;;;;;;5046733;28;20025;-72
2021/07/24 08:16:45;;;;;;;17.15;14.40;;;21.10;99.90;;;;;;5047893;28;20142;-73
2021/07/24 08:19:13;;;;;;;17.58;14.27;;;21.20;99.90;;;;;;5012883;28;20470;-72
2021/07/24 08:21:41;;;;;;;17.10;14.55;;;21.20;99.90;;;;;;5047073;28;20033;-72
2021/07/24 08:24:09;;;;;;;17.15;14.30;;;21.20;99.90;;;;;;5029833;28;20041;-72
2021/07/24 08:26:37;;;;;;;18.48;14.25;;;21.20;99.90;;;;;;5046667;28;20033;-72
2021/07/24 08:29:03;;;;;;;17.50;13.75;;;21.20;99.20;;;;;;5045783;28;20032;-67
2021/07/24 08:31:31;;;;;;;18.85;15.63;;;21.20;99.90;;;;;;5047332;28;20098;-68
2021/07/24 08:33:57;;;;;;;17.95;15.10;;;21.30;99.90;;;;;;5045921;28;20033;-68
2021/07/24 08:36:25;;;;;;;16.52;13.85;;;21.30;99.90;;;;;;5047703;28;20036;-73
2021/07/24 08:38:51;;;;;;;17.42;13.57;;;21.30;99.90;;;;;;5047281;28;20115;-72
2021/07/24 08:41:16;;;;;;;16.77;14.02;;;21.40;99.90;;;;;;5047806;28;20120;-72
2021/07/24 08:43:47;;;;;;;17.48;13.43;;;21.50;99.90;;;;;;5046401;28;20472;-72
2021/07/24 08:46:13;;;;;;;16.25;13.45;;;21.50;99.90;;;;;;5045559;28;20056;-71
2021/07/24 08:48:41;;;;;;;15.77;13.73;;;21.50;99.90;;;;;;5029612;28;20167;-72
2021/07/24 08:51:07;;;;;;;16.02;13.65;;;21.60;99.90;;;;;;5028212;28;20457;-73
2021/07/24 08:53:38;;;;;;;16.60;13.75;;;21.60;99.90;;;;;;5028115;28;20041;-72
2021/07/24 08:56:05;;;;;;;17.17;13.57;;;21.60;99.90;;;;;;5017088;28;20033;-72
2021/07/24 08:58:35;;;;;;;15.10;13.35;;;21.60;99.90;;;;;;5065695;28;20128;-72
2021/07/24 09:01:01;;;;;;;16.27;13.93;;;21.70;99.90;;;;;;5032967;28;20043;-72
2021/07/24 09:03:29;;;;;;;16.65;13.57;;;21.60;99.90;;;;;;5050294;28;20122;-72
2021/07/24 09:05:57;;;;;;;15.75;13.90;;;21.60;99.90;;;;;;5032392;28;20059;-72
2021/07/24 09:08:25;;;;;;;15.30;13.70;;;21.70;99.90;;;;;;5048872;28;20040;-72
2021/07/24 09:10:58;;;;;;;15.77;13.20;;;21.60;99.90;;;;;;5049898;28;20028;-73
2021/07/24 09:13:23;;;;;;;16.33;14.30;;;21.60;99.90;;;;;;5017670;28;20028;-72
2021/07/24 09:15:49;;;;;;;17.42;13.90;;;21.60;99.90;;;;;;5033210;28;20090;-73
2021/07/24 09:18:19;;;;;;;15.25;13.02;;;21.60;99.90;;;;;;5049939;28;20374;-72
2021/07/24 09:20:46;;;;;;;16.55;13.30;;;21.60;99.90;;;;;;5032840;28;20029;-72
2021/07/24 09:23:25;;;;;;;15.27;13.55;;;21.60;99.90;;;;;;5025893;28;20036;-72
2021/07/24 09:25:51;;;;;;;15.85;13.63;;;21.70;99.90;;;;;;5031581;28;20035;-72
2021/07/24 09:28:19;;;;;;;17.77;13.90;;;21.70;99.90;;;;;;5034144;28;20028;-72
2021/07/24 09:30:44;;;;;;;17.92;14.43;;;21.70;99.90;;;;;;5049045;28;20466;-72
2021/07/24 09:33:11;;;;;;;15.40;13.80;;;21.80;99.90;;;;;;5049543;28;20044;-73
2021/07/24 09:35:51;;;;;;;16.23;13.52;;;21.90;99.90;;;;;;5049679;28;20511;-69
2021/07/24 09:38:37;;;;;;;17.20;15.27;;;22.00;99.90;;;;;;5032741;28;20120;-68
2021/07/24 09:41:05;;;;;;;17.75;15.02;;;22.00;99.90;;;;;;5049299;28;20052;-69
2021/07/24 09:43:35;;;;;;;16.10;14.40;;;22.10;99.90;;;;;;5033123;28;20037;-74
2021/07/24 09:46:12;;;;;;;16.83;13.75;;;22.10;99.90;;;;;;5049153;28;20146;-74
2021/07/24 09:48:43;;;;;;;17.27;13.45;;;22.10;99.90;;;;;;5031266;28;20500;-74
2021/07/24 09:51:09;;;;;;;14.98;13.23;;;22.20;99.90;;;;;;5013527;28;20360;-73
2021/07/24 09:53:41;;;;;;;18.10;14.10;;;22.10;99.90;;;;;;5031942;28;20036;-73
2021/07/24 09:56:11;;;;;;;15.65;12.52;;;22.10;99.90;;;;;;5032289;28;20025;-73
2021/07/24 09:58:38;;;;;;;15.13;13.52;;;22.10;99.90;;;;;;5048340;28;20457;-69
2021/07/24 10:01:07;;;;;;;16.70;15.00;;;22.20;99.90;;;;;;5049327;28;20340;-73
2021/07/24 10:03:39;;;;;;;17.70;14.60;;;22.10;99.90;;;;;;5047872;28;20355;-73
2021/07/24 10:06:15;;;;;;;15.65;13.88;;;22.10;99.90;;;;;;5031452;28;20128;-73
2021/07/24 10:08:46;;;;;;;16.98;14.77;;;22.20;99.90;;;;;;5048901;28;20044;-73
2021/07/24 10:11:12;;;;;;;17.20;14.05;;;22.10;99.90;;;;;;5032580;28;20067;-73
2021/07/24 10:13:39;;;;;;;16.25;14.27;;;22.20;99.90;;;;;;5030964;28;20108;-73
2021/07/24 10:16:05;;;;;;;17.80;14.50;;;22.30;99.90;;;;;;5032908;28;20508;-73
2021/07/24 10:18:33;;;;;;;15.95;14.02;;;22.30;99.90;;;;;;5031624;28;20033;-73
2021/07/24 10:21:04;;;;;;;18.13;15.02;;;22.40;99.90;;;;;;5013445;28;20040;-74
2021/07/24 10:23:29;;;;;;;17.88;14.93;;;22.40;99.90;;;;;;5048441;28;20024;-74
2021/07/24 10:26:14;;;;;;;18.10;14.60;;;22.40;99.90;;;;;;5048079;28;20056;-69
2021/07/24 10:28:46;;;;;;;19.63;16.63;;;22.40;99.90;;;;;;5048531;28;20040;-74
2021/07/24 10:31:22;;;;;;;24.05;15.32;;;22.30;98.20;;;;;;5047924;28;20044;-76
2021/07/24 10:33:48;;;;;;;17.58;15.10;;;22.60;99.90;;;;;;5063302;28;20041;-73
2021/07/24 10:36:17;;;;;;;19.75;15.43;;;22.60;99.90;;;;;;5048063;28;20020;-73
2021/07/24 10:38:59;;;;;;;18.35;14.70;;;22.70;99.20;;;;;;5048086;28;20103;-73
2021/07/24 10:41:25;;;;;;;17.42;13.82;;;23.00;98.40;;;;;;5028696;28;20025;-73
2021/07/24 10:44:04;;;;;;;19.27;15.18;;;23.10;99.90;;;;;;5028237;28;20408;-74
2021/07/24 10:46:44;;;;;;;17.02;14.68;;;23.00;94.10;;;;;;5046713;28;20115;-72
2021/07/24 10:49:22;;;;;;;15.95;13.85;;;23.20;99.50;;;;;;5030067;28;20086;-74
2021/07/24 10:51:54;;;;;;;15.10;13.27;;;23.30;99.90;;;;;;5046243;28;20369;-74
2021/07/24 10:54:23;;;;;;;16.38;14.50;;;23.40;99.90;;;;;;5062428;28;20090;-75
2021/07/24 10:56:51;;;;;;;16.83;13.43;;;23.50;99.90;;;;;;5046059;28;20021;-71
2021/07/24 10:59:17;;;;;;;16.77;14.98;;;23.60;99.90;;;;;;5046363;28;20049;-70
2021/07/24 11:01:56;;;;;;;16.95;15.15;;;23.80;99.60;;;;;;5029005;28;20032;-70
2021/07/24 11:04:37;;;;;;;16.83;15.02;;;24.00;99.90;;;;;;5028219;28;20036;-74
2021/07/24 11:07:24;;;;;;;16.15;13.68;;;24.10;97.00;;;;;;5045834;28;20028;-74
2021/07/24 11:09:53;;;;;;;17.40;14.50;;;24.20;94.30;;;;;;5045615;28;20476;-74
2021/07/24 11:12:38;;;;;;;17.30;14.10;;;24.40;99.90;;;;;;5046631;28;20666;-73
2021/07/24 11:15:10;;;;;;;15.80;14.05;;;24.40;99.90;;;;;;5031329;28;20028;-74
2021/07/24 11:17:36;;;;;;;;;;;24.30;94.90;;;;;;5046007;28;20146;-74
2021/07/24 11:20:04;;;;;;;16.75;14.27;;;24.40;95.20;;;;;;5028739;28;19991;-75
2021/07/24 11:22:32;;;;;;;17.50;14.60;;;24.50;99.90;;;;;;5027512;28;20032;-74
2021/07/24 11:24:58;;;;;;;17.13;14.77;;;24.60;99.00;;;;;;5028197;28;20061;-76
2021/07/24 11:27:29;;;;;;;16.67;13.65;;;24.40;92.90;;;;;;5046125;28;20108;-70
2021/07/24 11:30:07;;;;;;;16.17;13.85;;;24.40;98.00;;;;;;5046820;28;20565;-74
2021/07/24 11:32:40;;;;;;;16.60;13.60;;;24.20;94.90;;;;;;5046183;28;20056;-76
2021/07/24 11:35:09;;;;;;;15.80;13.73;;;24.20;95.50;;;;;;4697750;28;9999731;-75
2021/07/24 11:37:53;;;;;;;16.25;13.15;;;24.20;93.20;;;;;;5047463;28;20025;-75
2021/07/24 11:40:23;;;;;;;15.90;13.40;;;24.20;99.90;;;;;;5009569;28;20028;-75
2021/07/24 11:43:07;;;;;;;17.83;14.48;;;24.20;99.60;;;;;;5028909;28;20033;-74
2021/07/24 11:45:35;;;;;;;16.77;14.13;;;24.10;90.60;;;;;;5030409;28;20507;-75
2021/07/24 11:48:15;;;;;;;15.55;13.70;;;24.10;95.80;;;;;;5045524;28;20047;-75
2021/07/24 11:50:42;;;;;;;16.45;12.95;;;24.00;97.10;;;;;;5046369;28;20048;-75
2021/07/24 11:53:10;;;;;;;15.70;13.23;;;24.00;96.40;;;;;;5028906;28;20130;-75
2021/07/24 11:55:36;;;;;;;16.63;13.73;;;24.10;97.50;;;;;;5028084;28;20048;-74
2021/07/24 11:58:06;;;;;;;17.60;12.90;;;24.20;98.90;;;;;;5026978;28;20494;-74
2021/07/24 12:00:32;;;;;;;14.93;13.32;;;24.30;99.90;;;;;;5011355;28;20036;-74
2021/07/24 12:03:17;;;;;;;16.98;14.13;;;24.20;96.40;;;;;;5028835;28;20036;-74
2021/07/24 12:05:44;;;;;;;16.30;12.85;;;24.20;92.80;;;;;;5060951;28;20082;-74
2021/07/24 12:08:09;;;;;;;15.00;13.30;;;24.20;99.60;;;;;;5046490;28;20017;-74
2021/07/24 12:10:39;;;;;;;15.10;12.65;;;24.30;98.90;;;;;;5002825;28;20474;-75
2021/07/24 12:13:05;;;;;;;14.23;12.23;;;24.30;99.90;;;;;;5028766;28;20054;-74
2021/07/24 12:16:05;;;;;;;14.35;12.85;;;24.40;99.90;;;;;;5045698;28;20048;-74
2021/07/24 12:18:51;;;;;;;14.30;12.63;;;24.40;99.90;;;;;;5045675;28;20466;-74
2021/07/24 12:21:20;;;;;;;13.88;12.43;;;24.40;99.90;;;;;;5061208;28;20044;-69
2021/07/24 12:24:07;;;;;;;15.53;13.87;;;24.30;99.90;;;;;;4696744;28;10000114;-70
2021/07/24 12:26:36;;;;;;;14.18;11.95;;;24.40;99.90;;;;;;5044615;28;20739;-75
2021/07/24 12:29:23;;;;;;;13.55;12.10;;;24.40;99.90;;;;;;5044867;28;20039;-74
2021/07/24 12:31:53;;;;;;;15.05;13.20;;;24.30;99.90;;;;;;5043619;28;20466;-76
2021/07/24 12:34:22;;;;;;;16.52;11.90;;;24.20;99.90;;;;;;4665113;28;10000583;-74
2021/07/24 12:36:56;;;;;;;16.52;12.30;;;24.30;99.90;;;;;;5002378;28;20032;-72
2021/07/24 12:39:25;;;;;;;13.98;11.98;;;24.20;99.90;;;;;;5011677;28;20025;-75